createdAt,value
2023-05-12T00:01:37.405Z,6.81
2023-05-12T00:04:06.951Z,6.87
2023-05-12T00:06:35.842Z,6.91
2023-05-12T00:09:04.332Z,6.94
2023-05-12T00:11:34.301Z,6.95
2023-05-12T00:14:02.787Z,6.95
2023-05-12T00:16:31.430Z,6.94
2023-05-12T00:18:59.965Z,6.95
2023-05-12T00:21:28.501Z,6.96
2023-05-12T00:23:57.324Z,6.91
2023-05-12T00:26:26.123Z,6.89
2023-05-12T00:28:56.128Z,6.78
2023-05-12T00:31:24.728Z,6.70
2023-05-12T00:33:53.187Z,6.64
2023-05-12T00:36:22.078Z,6.72
2023-05-12T00:38:50.910Z,6.62
2023-05-12T00:41:19.615Z,6.97
2023-05-12T00:43:48.069Z,6.96
2023-05-12T00:46:19.518Z,6.87
2023-05-12T00:48:48.152Z,7.08
2023-05-12T00:51:18.317Z,7.28
2023-05-12T00:53:50.268Z,7.41
2023-05-12T00:56:20.291Z,7.45
2023-05-12T00:58:49.073Z,7.54
2023-05-12T01:01:20.444Z,7.52
2023-05-12T01:03:51.674Z,7.52
2023-05-12T01:06:29.032Z,7.43
2023-05-12T01:08:59.427Z,7.44
2023-05-12T01:11:27.952Z,7.54
2023-05-12T01:13:56.535Z,7.59
2023-05-12T01:16:32.809Z,7.57
2023-05-12T01:19:03.777Z,7.57
2023-05-12T01:21:32.271Z,7.47
2023-05-12T01:24:07.372Z,7.37
2023-05-12T01:26:38.117Z,7.12
2023-05-12T01:29:07.470Z,6.22
2023-05-12T01:31:36.567Z,6.53
2023-05-12T01:34:05.287Z,6.58
2023-05-12T01:36:33.824Z,6.70
2023-05-12T01:39:02.526Z,6.13
2023-05-12T01:41:31.039Z,5.38
2023-05-12T01:44:01.104Z,4.62
2023-05-12T01:46:29.816Z,4.16
2023-05-12T01:49:00.747Z,4.13
2023-05-12T01:51:29.726Z,4.07
2023-05-12T01:53:59.936Z,4.29
2023-05-12T01:56:32.301Z,4.41
2023-05-12T01:59:02.397Z,4.31
2023-05-12T02:01:32.413Z,3.97
2023-05-12T02:04:01.462Z,3.85
2023-05-12T02:06:30.768Z,3.89
2023-05-12T02:08:59.310Z,4.26
2023-05-12T02:11:27.982Z,4.20
2023-05-12T02:13:57.125Z,4.25
2023-05-12T02:16:28.061Z,4.36
2023-05-12T02:18:56.770Z,4.49
2023-05-12T02:21:26.062Z,4.62
2023-05-12T02:23:56.343Z,4.53
2023-05-12T02:26:24.948Z,4.59
2023-05-12T02:28:54.126Z,4.44
2023-05-12T02:31:23.807Z,4.52
2023-05-12T02:33:54.268Z,4.52
2023-05-12T02:36:22.935Z,4.61
2023-05-12T02:38:51.826Z,4.55
2023-05-12T02:41:20.463Z,4.71
2023-05-12T02:43:49.105Z,4.82
2023-05-12T02:46:17.750Z,5.03
2023-05-12T02:48:46.225Z,4.98
2023-05-12T02:51:16.262Z,4.87
2023-05-12T02:53:45.036Z,4.61
2023-05-12T02:56:13.564Z,4.72
2023-05-12T02:58:42.125Z,4.87
2023-05-12T03:01:11.998Z,5.03
2023-05-12T03:03:42.025Z,5.17
2023-05-12T03:06:11.484Z,5.30
2023-05-12T03:08:41.526Z,5.46
2023-05-12T03:11:10.060Z,5.60
2023-05-12T03:13:38.595Z,5.68
2023-05-12T03:16:07.657Z,5.76
2023-05-12T03:18:36.454Z,5.81
2023-05-12T03:21:05.414Z,5.81
2023-05-12T03:23:33.912Z,5.68
2023-05-12T03:26:03.945Z,5.77
2023-05-12T03:28:32.500Z,5.86
2023-05-12T03:31:01.114Z,6.01
2023-05-12T03:33:29.729Z,6.27
2023-05-12T03:35:58.782Z,6.32
2023-05-12T03:38:28.267Z,6.27
2023-05-12T03:41:06.519Z,6.42
2023-05-12T03:43:36.210Z,6.65
2023-05-12T03:46:05.373Z,6.82
2023-05-12T03:48:33.870Z,6.88
2023-05-12T03:51:03.101Z,7.00
2023-05-12T03:53:31.661Z,7.02
2023-05-12T03:56:07.486Z,7.08
2023-05-12T03:58:36.041Z,7.24
2023-05-12T04:01:04.631Z,7.37
2023-05-12T04:03:33.309Z,7.49
2023-05-12T04:06:04.063Z,7.60
2023-05-12T04:08:32.899Z,7.56
2023-05-12T04:11:03.489Z,7.64
2023-05-12T04:13:33.566Z,7.68
2023-05-12T04:16:02.548Z,7.81
2023-05-12T04:18:31.434Z,7.82
2023-05-12T04:21:01.610Z,7.86
2023-05-12T04:23:30.138Z,7.96
2023-05-12T04:25:59.359Z,8.02
2023-05-12T04:28:27.891Z,8.11
2023-05-12T04:30:58.124Z,8.17
2023-05-12T04:33:26.750Z,8.24
2023-05-12T04:35:57.482Z,8.43
2023-05-12T04:38:26.421Z,8.45
2023-05-12T04:40:59.971Z,8.51
2023-05-12T04:46:02.824Z,8.69
2023-05-12T04:48:31.583Z,8.78
2023-05-12T04:51:00.871Z,8.88
2023-05-12T04:53:34.772Z,9.01
2023-05-12T04:56:03.997Z,9.16
2023-05-12T04:58:37.616Z,9.23
2023-05-12T05:01:08.535Z,9.34
2023-05-12T05:03:37.449Z,9.55
2023-05-12T05:06:06.323Z,9.56
2023-05-12T05:08:35.183Z,9.67
2023-05-12T05:11:04.959Z,10.00
2023-05-12T05:13:34.018Z,10.06
2023-05-12T05:16:02.650Z,10.09
2023-05-12T05:18:33.929Z,10.16
2023-05-12T05:21:02.879Z,10.20
2023-05-12T05:23:31.464Z,10.29
2023-05-12T05:26:00.170Z,10.42
2023-05-12T05:28:28.668Z,10.65
2023-05-12T05:30:57.322Z,10.87
2023-05-12T05:33:25.925Z,10.86
2023-05-12T05:35:56.874Z,11.00
2023-05-12T05:38:26.103Z,11.12
2023-05-12T05:40:54.864Z,11.27
2023-05-12T05:43:25.246Z,11.46
2023-05-12T05:45:56.022Z,11.49
2023-05-12T05:48:24.761Z,11.64
2023-05-12T05:50:55.768Z,11.66
2023-05-12T05:53:26.098Z,11.66
2023-05-12T05:55:54.898Z,11.79
2023-05-12T05:58:25.070Z,11.95
2023-05-12T06:00:53.648Z,12.03
2023-05-12T06:03:22.243Z,12.13
2023-05-12T06:05:51.391Z,12.29
2023-05-12T06:08:21.308Z,12.32
2023-05-12T06:10:49.892Z,12.47
2023-05-12T06:13:20.074Z,12.51
2023-05-12T06:15:48.672Z,12.56
2023-05-12T06:18:17.143Z,12.65
2023-05-12T06:20:45.760Z,13.01
2023-05-12T06:23:14.143Z,13.06
2023-05-12T06:25:44.122Z,13.05
2023-05-12T06:28:12.852Z,13.11
2023-05-12T06:30:41.386Z,13.44
2023-05-12T06:33:09.986Z,13.62
2023-05-12T06:35:38.672Z,13.68
2023-05-12T06:38:07.637Z,13.81
2023-05-12T06:40:36.228Z,13.93
2023-05-12T06:43:06.210Z,14.06
2023-05-12T06:45:37.212Z,14.16
2023-05-12T06:48:06.339Z,14.20
2023-05-12T06:50:34.899Z,14.39
2023-05-12T06:53:03.547Z,14.56
2023-05-12T06:55:31.996Z,14.74
2023-05-12T06:58:00.617Z,15.09
2023-05-12T07:00:30.939Z,15.17
2023-05-12T07:02:59.596Z,15.17
2023-05-12T07:05:28.227Z,15.30
2023-05-12T07:07:56.830Z,15.43
2023-05-12T07:10:25.265Z,15.36
2023-05-12T07:12:53.869Z,15.46
2023-05-12T07:15:22.732Z,15.60
2023-05-12T07:17:53.255Z,15.68
2023-05-12T07:20:21.770Z,15.66
2023-05-12T07:22:52.249Z,15.79
2023-05-12T07:25:21.338Z,15.90
2023-05-12T07:27:50.801Z,16.13
2023-05-12T07:30:22.727Z,16.33
2023-05-12T07:32:53.283Z,16.46
2023-05-12T07:35:22.221Z,16.56
2023-05-12T07:37:51.079Z,16.70
2023-05-12T07:40:19.844Z,17.01
2023-05-12T07:42:48.252Z,17.13
2023-05-12T07:45:23.149Z,17.12
2023-05-12T07:47:53.343Z,17.32
2023-05-12T07:50:21.866Z,16.96
2023-05-12T07:52:51.447Z,16.91
2023-05-12T07:55:21.697Z,17.05
2023-05-12T07:57:51.415Z,17.22
2023-05-12T08:00:20.669Z,17.41
2023-05-12T08:02:49.367Z,17.45
2023-05-12T08:05:19.765Z,17.59
2023-05-12T08:07:48.531Z,17.57
2023-05-12T08:10:17.021Z,17.65
2023-05-12T08:12:45.491Z,17.78
2023-05-12T08:15:14.743Z,18.08
2023-05-12T08:17:43.362Z,18.08
2023-05-12T08:20:12.909Z,18.15
2023-05-12T08:22:43.010Z,18.20
2023-05-12T08:25:12.693Z,18.17
2023-05-12T08:27:41.410Z,18.07
2023-05-12T08:30:10.772Z,18.01
2023-05-12T08:32:39.331Z,18.11
2023-05-12T08:35:08.335Z,18.21
2023-05-12T08:37:37.065Z,18.28
2023-05-12T08:40:16.766Z,18.21
2023-05-12T08:42:50.498Z,18.17
2023-05-12T08:45:19.439Z,18.21
2023-05-12T08:47:48.486Z,18.45
2023-05-12T08:50:20.003Z,18.59
2023-05-12T08:52:49.485Z,18.80
2023-05-12T08:57:50.280Z,19.38
2023-05-12T09:00:20.752Z,19.42
2023-05-12T09:02:53.855Z,19.37
2023-05-12T09:05:23.642Z,19.45
2023-05-12T09:07:55.284Z,19.57
2023-05-12T09:10:35.296Z,19.65
2023-05-12T09:13:15.979Z,19.71
2023-05-12T09:15:47.042Z,19.87
2023-05-12T09:18:15.759Z,20.11
2023-05-12T09:20:44.588Z,20.07
2023-05-12T09:23:18.627Z,20.26
2023-05-12T09:25:48.862Z,20.37
2023-05-12T09:28:17.371Z,20.37
2023-05-12T09:30:45.875Z,20.27
2023-05-12T09:33:15.545Z,20.34
2023-05-12T09:35:45.442Z,20.50
2023-05-12T09:38:15.286Z,20.56
2023-05-12T09:40:47.043Z,20.49
2023-05-12T09:43:17.836Z,20.68
2023-05-12T09:45:47.835Z,20.83
2023-05-12T09:48:16.367Z,20.86
2023-05-12T09:50:47.707Z,20.98
2023-05-12T09:53:18.058Z,21.15
2023-05-12T09:55:47.016Z,20.50
2023-05-12T09:58:18.402Z,20.35
2023-05-12T10:03:22.208Z,20.68
2023-05-12T10:05:53.870Z,20.92
2023-05-12T10:08:26.128Z,21.17
2023-05-12T10:10:57.752Z,21.31
2023-05-12T10:13:28.046Z,21.38
2023-05-12T10:15:59.173Z,21.54
2023-05-12T10:18:27.918Z,21.36
2023-05-12T10:20:58.763Z,21.44
2023-05-12T10:23:28.819Z,21.41
2023-05-12T10:25:58.765Z,21.65
2023-05-12T10:28:29.211Z,21.54
2023-05-12T10:30:59.215Z,21.21
2023-05-12T10:33:28.182Z,21.79
2023-05-12T10:35:56.740Z,21.86
2023-05-12T10:38:25.624Z,21.57
2023-05-12T10:40:57.900Z,21.59
2023-05-12T10:43:29.828Z,20.98
2023-05-12T10:46:11.938Z,20.70
2023-05-12T10:48:52.937Z,20.55
2023-05-12T10:51:23.006Z,20.27
2023-05-12T10:53:57.640Z,20.12
2023-05-12T10:56:28.581Z,19.84
2023-05-12T10:59:19.313Z,20.27
2023-05-12T11:02:03.917Z,20.26
2023-05-12T11:04:42.397Z,20.18
2023-05-12T11:07:13.851Z,20.28
2023-05-12T11:12:18.747Z,20.52
2023-05-12T11:14:48.962Z,20.64
2023-05-12T11:17:17.561Z,20.90
2023-05-12T11:19:47.835Z,20.89
2023-05-12T11:22:20.242Z,21.10
2023-05-12T11:24:49.666Z,21.08
2023-05-12T11:27:19.365Z,20.88
2023-05-12T11:29:58.103Z,20.83
2023-05-12T11:32:26.810Z,20.91
2023-05-12T11:34:55.319Z,20.89
2023-05-12T11:37:24.192Z,20.96
2023-05-12T11:39:53.233Z,20.88
2023-05-12T11:42:24.320Z,20.99
2023-05-12T11:44:56.781Z,20.98
2023-05-12T11:47:26.842Z,21.07
2023-05-12T11:49:56.640Z,21.04
2023-05-12T11:52:26.386Z,20.83
2023-05-12T11:55:00.398Z,20.93
2023-05-12T11:57:30.035Z,20.94
2023-05-12T12:00:01.486Z,20.78
2023-05-12T12:02:36.028Z,20.68
2023-05-12T12:05:07.827Z,20.85
2023-05-12T12:07:38.547Z,20.87
2023-05-12T12:10:14.009Z,20.87
2023-05-12T12:12:42.725Z,20.73
2023-05-12T12:15:13.874Z,20.73
2023-05-12T12:17:42.604Z,20.76
2023-05-12T12:20:12.003Z,20.78
2023-05-12T12:22:40.638Z,20.81
2023-05-12T12:25:10.237Z,20.83
2023-05-12T12:27:38.766Z,20.78
2023-05-12T12:30:11.257Z,20.73
2023-05-12T12:32:41.371Z,20.68
2023-05-12T12:35:10.332Z,20.70
2023-05-12T12:37:39.273Z,20.83
2023-05-12T12:40:10.228Z,20.91
2023-05-12T12:42:41.454Z,20.93
2023-05-12T12:45:10.738Z,20.92
2023-05-12T12:47:40.909Z,20.80
2023-05-12T12:50:10.858Z,20.73
2023-05-12T12:52:39.590Z,20.45
2023-05-12T12:55:10.151Z,20.42
2023-05-12T12:57:38.972Z,20.43
2023-05-12T13:00:08.928Z,20.55
2023-05-12T13:02:37.837Z,20.60
2023-05-12T13:05:10.320Z,20.60
2023-05-12T13:07:38.931Z,20.65
2023-05-12T13:10:08.579Z,20.80
2023-05-12T13:12:37.307Z,20.71
2023-05-12T13:15:07.468Z,20.75
2023-05-12T13:17:36.222Z,20.81
2023-05-12T13:20:05.108Z,20.94
2023-05-12T13:22:35.313Z,20.97
2023-05-12T13:25:06.617Z,20.82
2023-05-12T13:27:35.352Z,20.75
2023-05-12T13:30:06.491Z,20.81
2023-05-12T13:32:35.525Z,20.63
2023-05-12T13:35:04.589Z,20.71
2023-05-12T13:37:34.604Z,20.78
2023-05-12T13:40:03.128Z,20.37
2023-05-12T13:42:31.571Z,20.28
2023-05-12T13:45:00.445Z,20.34
2023-05-12T13:47:29.404Z,20.25
2023-05-12T13:49:57.969Z,20.11
2023-05-12T13:52:26.569Z,20.24
2023-05-12T13:54:56.622Z,20.13
2023-05-12T13:57:25.078Z,20.18
2023-05-12T13:59:55.155Z,20.08
2023-05-12T14:02:23.629Z,20.26
2023-05-12T14:04:52.190Z,20.30
2023-05-12T14:07:20.973Z,20.30
2023-05-12T14:09:49.479Z,20.21
2023-05-12T14:12:19.449Z,19.87
2023-05-12T14:14:50.416Z,19.74
2023-05-12T14:17:19.340Z,19.80
2023-05-12T14:19:47.916Z,19.82
2023-05-12T14:22:25.617Z,19.90
2023-05-12T14:24:55.815Z,19.84
2023-05-12T14:27:26.186Z,19.73
2023-05-12T14:29:54.771Z,19.71
2023-05-12T14:32:23.285Z,19.84
2023-05-12T14:34:51.976Z,19.86
2023-05-12T14:37:20.507Z,19.82
2023-05-12T14:39:49.040Z,19.84
2023-05-12T14:42:18.200Z,19.79
2023-05-12T14:44:48.181Z,19.84
2023-05-12T14:47:16.704Z,19.66
2023-05-12T14:49:45.803Z,19.71
2023-05-12T14:52:14.388Z,19.61
2023-05-12T14:54:43.064Z,19.39
2023-05-12T14:57:13.677Z,19.42
2023-05-12T14:59:42.091Z,19.36
2023-05-12T15:02:12.335Z,19.27
2023-05-12T15:04:41.045Z,19.14
2023-05-12T15:07:09.548Z,19.03
2023-05-12T15:09:38.179Z,19.02
2023-05-12T15:12:07.707Z,19.01
2023-05-12T15:14:36.821Z,19.16
2023-05-12T15:17:05.636Z,19.37
2023-05-12T15:19:35.728Z,19.53
2023-05-12T15:22:04.451Z,19.66
2023-05-12T15:24:33.219Z,19.70
2023-05-12T15:27:01.950Z,19.72
2023-05-12T15:29:32.625Z,19.78
2023-05-12T15:32:00.930Z,19.73
2023-05-12T15:34:29.449Z,19.81
2023-05-12T15:36:59.598Z,19.82
2023-05-12T15:39:28.301Z,19.89
2023-05-12T15:41:56.902Z,20.00
2023-05-12T15:44:25.547Z,19.99
2023-05-12T15:46:54.158Z,20.03
2023-05-12T15:49:22.962Z,20.11
2023-05-12T15:51:51.474Z,20.16
2023-05-12T15:54:21.712Z,20.12
2023-05-12T15:56:50.632Z,20.15
2023-05-12T15:59:19.986Z,20.10
2023-05-12T16:01:48.603Z,20.03
2023-05-12T16:04:17.187Z,20.12
2023-05-12T16:06:46.123Z,20.19
2023-05-12T16:09:14.768Z,20.19
2023-05-12T16:11:45.125Z,20.26
2023-05-12T16:14:13.655Z,20.22
2023-05-12T16:16:48.360Z,20.37
2023-05-12T16:19:17.224Z,20.21
2023-05-12T16:21:45.808Z,20.23
2023-05-12T16:24:14.502Z,20.16
2023-05-12T16:26:44.415Z,20.12
2023-05-12T16:29:13.949Z,20.05
2023-05-12T16:31:42.521Z,20.21
2023-05-12T16:34:11.119Z,20.26
2023-05-12T16:36:39.590Z,20.23
2023-05-12T16:39:09.012Z,20.18
2023-05-12T16:41:37.432Z,20.24
2023-05-12T16:44:07.698Z,20.11
2023-05-12T16:46:36.373Z,20.12
2023-05-12T16:49:05.176Z,19.99
2023-05-12T16:51:33.727Z,19.94
2023-05-12T16:54:02.643Z,19.79
2023-05-12T16:56:31.111Z,19.52
2023-05-12T16:59:00.164Z,19.31
2023-05-12T17:01:31.918Z,19.03
2023-05-12T17:04:00.484Z,18.80
2023-05-12T17:06:29.197Z,18.83
2023-05-12T17:08:57.685Z,18.72
2023-05-12T17:11:26.123Z,18.57
2023-05-12T17:13:56.010Z,18.39
2023-05-12T17:16:24.520Z,18.26
2023-05-12T17:21:26.072Z,18.13
2023-05-12T17:23:55.116Z,17.88
2023-05-12T17:26:23.703Z,17.84
2023-05-12T17:28:52.228Z,17.74
2023-05-12T17:33:49.423Z,17.49
2023-05-12T17:36:19.590Z,17.17
2023-05-12T17:38:47.994Z,17.06
2023-05-12T17:41:16.599Z,17.06
2023-05-12T17:43:45.134Z,17.04
2023-05-12T17:46:13.710Z,16.89
2023-05-12T17:48:42.204Z,16.76
2023-05-12T17:51:10.752Z,16.67
2023-05-12T17:53:40.686Z,16.66
2023-05-12T17:56:09.287Z,16.61
2023-05-12T17:58:37.747Z,16.58
2023-05-12T18:01:06.388Z,16.49
2023-05-12T18:03:34.920Z,16.51
2023-05-12T18:06:05.781Z,16.54
2023-05-12T18:08:34.255Z,16.50
2023-05-12T18:11:04.223Z,16.46
2023-05-12T18:13:32.652Z,16.02
2023-05-12T18:16:01.347Z,15.87
2023-05-12T18:18:30.147Z,16.11
2023-05-12T18:20:59.746Z,16.29
2023-05-12T18:23:28.359Z,15.84
2023-05-12T18:25:57.489Z,16.08
2023-05-12T18:28:27.694Z,16.08
2023-05-12T18:31:00.328Z,15.92
2023-05-12T18:33:31.726Z,15.61
2023-05-12T18:36:01.380Z,15.88
2023-05-12T18:38:29.890Z,15.97
2023-05-12T18:40:58.354Z,15.90
2023-05-12T18:43:28.311Z,15.85
2023-05-12T18:45:56.806Z,15.68
2023-05-12T18:48:25.556Z,15.26
2023-05-12T18:50:54.316Z,15.17
2023-05-12T18:53:22.715Z,14.88
2023-05-12T18:55:51.769Z,14.40
2023-05-12T18:58:20.351Z,14.33
2023-05-12T19:00:50.225Z,13.77
2023-05-12T19:03:18.724Z,13.63
2023-05-12T19:05:49.094Z,13.77
2023-05-12T19:08:20.125Z,13.48
2023-05-12T19:10:49.461Z,13.73
2023-05-12T19:13:17.950Z,13.88
2023-05-12T19:15:46.749Z,13.84
2023-05-12T19:18:17.447Z,13.87
2023-05-12T19:20:45.994Z,13.84
2023-05-12T19:23:14.532Z,13.87
2023-05-12T19:25:43.705Z,13.71
2023-05-12T19:28:12.215Z,13.78
2023-05-12T19:30:40.665Z,13.76
2023-05-12T19:33:09.287Z,13.61
2023-05-12T19:35:39.369Z,13.16
2023-05-12T19:38:07.850Z,13.22
2023-05-12T19:40:36.332Z,13.19
2023-05-12T19:43:05.355Z,13.20
2023-05-12T19:45:34.423Z,13.22
2023-05-12T19:48:03.252Z,13.27
2023-05-12T19:50:32.214Z,13.22
2023-05-12T19:53:02.134Z,13.15
2023-05-12T19:55:30.911Z,13.09
2023-05-12T19:57:59.697Z,12.93
2023-05-12T20:00:28.394Z,12.92
2023-05-12T20:02:57.138Z,12.94
2023-05-12T20:05:25.831Z,12.89
2023-05-12T20:07:54.187Z,12.86
2023-05-12T20:10:24.192Z,12.84
2023-05-12T20:12:52.672Z,12.82
2023-05-12T20:15:21.712Z,12.72
2023-05-12T20:17:50.381Z,12.63
2023-05-12T20:20:19.290Z,12.60
2023-05-12T20:22:47.808Z,12.60
2023-05-12T20:25:17.916Z,12.53
2023-05-12T20:27:48.252Z,12.47
2023-05-12T20:30:16.937Z,12.39
2023-05-12T20:32:45.467Z,12.29
2023-05-12T20:35:13.856Z,12.21
2023-05-12T20:37:42.453Z,12.14
2023-05-12T20:40:12.220Z,12.15
2023-05-12T20:42:40.753Z,12.10
2023-05-12T20:45:11.895Z,12.03
2023-05-12T20:47:40.480Z,11.98
2023-05-12T20:50:10.122Z,12.00
2023-05-12T20:52:40.155Z,11.89
2023-05-12T20:55:09.779Z,11.82
2023-05-12T20:57:40.295Z,11.76
2023-05-12T21:00:12.318Z,11.69
2023-05-12T21:02:41.058Z,11.47
2023-05-12T21:05:10.428Z,11.46
2023-05-12T21:07:39.126Z,11.45
2023-05-12T21:10:08.350Z,11.38
2023-05-12T21:12:37.607Z,11.33
2023-05-12T21:15:07.467Z,11.32
2023-05-12T21:17:39.381Z,11.26
2023-05-12T21:20:11.091Z,11.20
2023-05-12T21:22:41.629Z,11.04
2023-05-12T21:25:11.081Z,10.98
2023-05-12T21:27:41.686Z,10.78
2023-05-12T21:30:13.924Z,10.75
2023-05-12T21:32:43.996Z,10.74
2023-05-12T21:35:12.720Z,10.75
2023-05-12T21:37:41.304Z,10.57
2023-05-12T21:40:11.304Z,10.45
2023-05-12T21:42:39.845Z,10.39
2023-05-12T21:45:09.449Z,10.34
2023-05-12T21:47:38.203Z,10.44
2023-05-12T21:50:08.743Z,10.27
2023-05-12T21:52:37.304Z,10.00
2023-05-12T21:55:06.506Z,9.78
2023-05-12T21:57:35.167Z,9.55
2023-05-12T22:00:04.337Z,9.55
2023-05-12T22:02:38.182Z,9.41
2023-05-12T22:05:09.826Z,9.21
2023-05-12T22:07:38.393Z,9.20
2023-05-12T22:10:07.909Z,9.06
2023-05-12T22:12:37.007Z,8.99
2023-05-12T22:15:06.446Z,8.86
2023-05-12T22:17:35.004Z,8.78
2023-05-12T22:20:04.567Z,8.72
2023-05-12T22:22:34.571Z,8.70
2023-05-12T22:25:04.428Z,8.68
2023-05-12T22:27:33.092Z,8.87
2023-05-12T22:30:01.476Z,8.67
2023-05-12T22:32:30.232Z,8.89
2023-05-12T22:34:58.763Z,9.02
2023-05-12T22:37:27.271Z,9.05
2023-05-12T22:39:57.391Z,9.03
2023-05-12T22:42:25.928Z,9.16
2023-05-12T22:44:54.547Z,9.22
2023-05-12T22:47:23.052Z,8.95
2023-05-12T22:49:51.669Z,8.79
2023-05-12T22:52:20.092Z,8.77
2023-05-12T22:54:48.489Z,8.61
2023-05-12T22:57:18.790Z,8.74
2023-05-12T22:59:47.254Z,8.75
2023-05-12T23:02:16.106Z,8.76
2023-05-12T23:04:44.808Z,8.94
2023-05-12T23:07:13.431Z,9.02
2023-05-12T23:09:41.935Z,8.93
2023-05-12T23:12:10.896Z,8.61
2023-05-12T23:14:41.107Z,8.48
2023-05-12T23:17:09.549Z,8.34
2023-05-12T23:19:38.210Z,8.11
2023-05-12T23:22:07.072Z,7.82
2023-05-12T23:24:36.206Z,7.78
2023-05-12T23:27:04.730Z,7.82
2023-05-12T23:29:34.683Z,8.06
2023-05-12T23:32:05.247Z,8.26
2023-05-12T23:34:33.791Z,8.36
2023-05-12T23:37:02.234Z,8.46
2023-05-12T23:39:30.930Z,8.48
2023-05-12T23:41:59.312Z,8.43
2023-05-12T23:44:27.772Z,8.47
2023-05-12T23:46:56.514Z,8.29
2023-05-12T23:49:26.592Z,8.06
2023-05-12T23:51:55.152Z,8.03
2023-05-12T23:54:23.649Z,7.60
2023-05-12T23:56:52.263Z,7.57
2023-05-12T23:59:20.689Z,7.47
